Time;durP1;ratioP1;P1;durP2;ratioP2;P2;SDS_P1;SDS_P2;PMS_P1;PMS_P2;Temp;Humidity;BMP_temperature;BMP_pressure;BME280_temperature;BME280_humidity;BME280_pressure;Samples;Min_cycle;Max_cycle;Signal;HPM_P1;HPM_P2
2022/09/23 00:00:32;;;;;;;;;;;;;;;;;;1896436;28;7157;-68
2022/09/23 00:01:31;;;;;;;;;;;;;;;;;;1896522;28;7014;-70
2022/09/23 00:02:29;;;;;;;;;;;;;;;;;;1896527;28;7046;-68
2022/09/23 00:03:27;;;;;;;;;;;;;;;;;;1895722;28;7014;-70
2022/09/23 00:04:26;;;;;;;;;;;;;;;;;;1895946;28;7120;-67
2022/09/23 00:05:23;;;;;;;;;;;;;;;;;;1895674;28;7006;-69
2022/09/23 00:06:22;;;;;;;;;;;;;;;;;;1895091;28;7097;-66
2022/09/23 00:07:20;;;;;;;;;;;;;;;;;;1896714;28;7072;-67
2022/09/23 00:08:17;;;;;;;;;;;;;;;;;;1896975;28;7037;-67
2022/09/23 00:09:15;;;;;;;;;;;;;;;;;;1895546;28;7321;-67
2022/09/23 00:10:12;;;;;;;;;;;;;;;;;;1896676;28;7009;-69
2022/09/23 00:11:12;;;;;;;;;;;;;;;;;;1896439;28;7030;-69
2022/09/23 00:12:09;;;;;;;;;;;;;;;;;;1896248;28;7226;-68
2022/09/23 00:13:07;;;;;;;;;;;;;;;;;;1896727;28;7329;-67
2022/09/23 00:14:04;;;;;;;;;;;;;;;;;;1891674;28;7104;-65
2022/09/23 00:15:02;;;;;;;;;;;;;;;;;;1896911;28;7050;-67
2022/09/23 00:16:05;;;;;;;;;;;;;;;;;;1896157;28;8531;-65
2022/09/23 00:17:03;;;;;;;;;;;;;;;;;;1888180;28;7033;-67
2022/09/23 00:18:00;;;;;;;;;;;;;;;;;;1892792;28;7010;-68
2022/09/23 00:18:57;;;;;;;;;;;;;;;;;;1896387;28;7013;-66
2022/09/23 00:19:55;;;;;;;;;;;;;;;;;;1891175;28;7021;-67
2022/09/23 00:20:52;;;;;;;;;;;;;;;;;;1890800;28;7013;-69
2022/09/23 00:21:50;;;;;;;;;;;;;;;;;;1896619;28;7013;-65
2022/09/23 00:22:47;;;;;;;;;;;;;;;;;;1896600;28;7356;-69
2022/09/23 00:23:45;;;;;;;;;;;;;;;;;;1895039;28;7010;-66
2022/09/23 00:24:43;;;;;;;;;;;;;;;;;;1888038;28;7255;-67
2022/09/23 00:25:40;;;;;;;;;;;;;;;;;;1889337;28;7120;-70
2022/09/23 00:26:37;;;;;;;;;;;;;;;;;;1888742;28;7105;-65
2022/09/23 00:27:35;;;;;;;;;;;;;;;;;;1881173;28;7174;-66
2022/09/23 00:28:33;;;;;;;;;;;;;;;;;;1880183;28;7014;-67
2022/09/23 00:29:31;;;;;;;;;;;;;;;;;;1888349;28;7006;-70
2022/09/23 00:30:28;;;;;;;;;;;;;;;;;;1889014;28;8048;-68
2022/09/23 00:31:26;;;;;;;;;;;;;;;;;;1893848;28;7054;-66
2022/09/23 00:32:23;;;;;;;;;;;;;;;;;;1893857;28;7010;-65
2022/09/23 00:33:21;;;;;;;;;;;;;;;;;;1896310;28;7050;-68
2022/09/23 00:34:18;;;;;;;;;;;;;;;;;;1889164;28;8111;-66
2022/09/23 00:35:16;;;;;;;;;;;;;;;;;;1893289;28;7097;-66
2022/09/23 00:36:15;;;;;;;;;;;;;;;;;;1896533;28;7006;-67
2022/09/23 00:37:13;;;;;;;;;;;;;;;;;;1896366;28;7097;-65
2022/09/23 00:38:11;;;;;;;;;;;;;;;;;;1887902;28;7373;-67
2022/09/23 00:39:08;;;;;;;;;;;;;;;;;;1880895;28;7346;-69
2022/09/23 00:40:07;;;;;;;;;;;;;;;;;;1887350;28;7050;-65
2022/09/23 00:41:05;;;;;;;;;;;;;;;;;;1889197;28;8023;-69
2022/09/23 00:42:02;;;;;;;;;;;;;;;;;;1888736;28;7009;-67
2022/09/23 00:43:00;;;;;;;;;;;;;;;;;;1888921;28;7097;-67
2022/09/23 00:43:59;;;;;;;;;;;;;;;;;;1888934;28;7025;-68
2022/09/23 00:44:57;;;;;;;;;;;;;;;;;;1891524;28;7010;-67
2022/09/23 00:45:55;;;;;;;;;;;;;;;;;;1887772;28;7117;-69
2022/09/23 00:46:52;;;;;;;;;;;;;;;;;;1880994;28;7950;-69
2022/09/23 00:47:56;;;;;;;;;;;;;;;;;;1880805;28;7009;-69
2022/09/23 00:49:14;;;;;;;;;;;;;;;;;;1890647;28;8038;-70
2022/09/23 00:50:29;;;;;;;;;;;;;;;;;;1888645;28;7034;-66
2022/09/23 00:51:32;;;;;;;;;;;;;;;;;;1893659;28;7009;-67
2022/09/23 00:52:31;;;;;;;;;;;;;;;;;;1890213;28;7010;-66
2022/09/23 00:53:28;;;;;;;;;;;;;;;;;;1891962;28;7113;-67
2022/09/23 00:54:26;;;;;;;;;;;;;;;;;;1887927;28;7013;-67
2022/09/23 00:55:40;;;;;;;;;;;;;;;;;;1893887;28;7025;-69
2022/09/23 00:56:39;;;;;;;;;;;;;;;;;;1889280;28;7151;-68
2022/09/23 00:57:38;;;;;;;;;;;;;;;;;;1896255;28;7089;-68
2022/09/23 00:58:39;;;;;;;;;;;;;;;;;;1888669;28;7025;-69
2022/09/23 00:59:37;;;;;;;;;;;;;;;;;;1892011;28;7042;-67
2022/09/23 01:00:34;;;;;;;;;;;;;;;;;;1889221;28;7006;-68
2022/09/23 01:01:31;;;;;;;;;;;;;;;;;;1893209;28;7010;-70
2022/09/23 01:02:30;;;;;;;;;;;;;;;;;;1896074;28;7046;-68
2022/09/23 01:03:28;;;;;;;;;;;;;;;;;;1896256;28;7092;-67
2022/09/23 01:04:27;;;;;;;;;;;;;;;;;;1890661;28;7010;-68
2022/09/23 01:05:25;;;;;;;;;;;;;;;;;;1888883;28;7173;-67
2022/09/23 01:06:22;;;;;;;;;;;;;;;;;;1891318;28;7312;-69
2022/09/23 01:07:20;;;;;;;;;;;;;;;;;;1896093;28;7006;-67
2022/09/23 01:08:19;;;;;;;;;;;;;;;;;;1881448;28;8159;-68
2022/09/23 01:09:17;;;;;;;;;;;;;;;;;;1885578;28;7025;-66
2022/09/23 01:10:17;;;;;;;;;;;;;;;;;;1889888;28;7092;-67
2022/09/23 01:11:34;;;;;;;;;;;;;;;;;;1895874;28;7328;-67
2022/09/23 01:12:32;;;;;;;;;;;;;;;;;;1888514;28;7006;-67
2022/09/23 01:13:41;;;;;;;;;;;;;;;;;;1893236;28;7113;-66
2022/09/23 01:14:52;;;;;;;;;;;;;;;;;;1895848;28;7678;-66
2022/09/23 01:16:00;;;;;;;;;;;;;;;;;;1897883;28;7005;-66
2022/09/23 01:17:04;;;;;;;;;;;;;;;;;;1897622;28;7017;-69
2022/09/23 01:18:07;;;;;;;;;;;;;;;;;;1897304;28;8041;-70
2022/09/23 01:19:33;;;;;;;;;;;;;;;;;;1897013;28;7010;-67
2022/09/23 01:20:40;;;;;;;;;;;;;;;;;;1892340;28;8035;-68
2022/09/23 01:21:57;;;;;;;;;;;;;;;;;;1896908;28;7113;-66
2022/09/23 01:23:06;;;;;;;;;;;;;;;;;;1897076;28;7009;-64
2022/09/23 01:24:09;;;;;;;;;;;;;;;;;;1897780;28;7009;-66
2022/09/23 01:25:09;;;;;;;;;;;;;;;;;;1897724;28;7046;-69
2022/09/23 01:26:20;;;;;;;;;;;;;;;;;;1897327;28;7010;-67
2022/09/23 01:27:33;;;;;;;;;;;;;;;;;;1897801;28;7092;-67
2022/09/23 01:28:32;;;;;;;;;;;;;;;;;;1896970;28;7006;-68
2022/09/23 01:29:29;;;;;;;;;;;;;;;;;;1897806;28;7006;-66
2022/09/23 01:30:40;;;;;;;;;;;;;;;;;;1897852;28;7006;-68
2022/09/23 01:32:10;;;;;;;;;;;;;;;;;;1897529;28;7021;-68
2022/09/23 01:33:10;;;;;;;;;;;;;;;;;;1874990;28;7033;-67
2022/09/23 01:34:12;;;;;;;;;;;;;;;;;;1888292;28;7097;-68
2022/09/23 01:35:37;;;;;;;;;;;;;;;;;;1897833;28;8114;-68
2022/09/23 01:36:53;;;;;;;;;;;;;;;;;;1898174;28;7400;-68
2022/09/23 01:38:08;;;;;;;;;;;;;;;;;;1897913;28;7029;-66
2022/09/23 01:39:14;;;;;;;;;;;;;;;;;;1897411;28;7109;-70
2022/09/23 01:40:14;;;;;;;;;;;;;;;;;;1897394;28;7105;-65
2022/09/23 01:41:18;;;;;;;;;;;;;;;;;;1897654;28;8529;-65
2022/09/23 01:42:24;;;;;;;;;;;;;;;;;;1897672;28;7013;-67
2022/09/23 01:43:33;;;;;;;;;;;;;;;;;;1897575;28;7145;-67
2022/09/23 01:44:32;;;;;;;;;;;;;;;;;;1897756;28;8502;-69
2022/09/23 01:45:36;;;;;;;;;;;;;;;;;;1897483;28;8051;-66
2022/09/23 01:46:41;;;;;;;;;;;;;;;;;;1898126;28;7046;-67
2022/09/23 01:47:43;;;;;;;;;;;;;;;;;;1898221;28;7005;-66
2022/09/23 01:48:55;;;;;;;;;;;;;;;;;;1897634;28;7006;-66
2022/09/23 01:49:57;;;;;;;;;;;;;;;;;;1897881;28;7009;-67
2022/09/23 01:50:58;;;;;;;;;;;;;;;;;;1897170;28;7037;-66
2022/09/23 01:52:05;;;;;;;;;;;;;;;;;;1896946;28;8882;-67
2022/09/23 01:53:11;;;;;;;;;;;;;;;;;;1897141;28;7002;-66
2022/09/23 01:54:18;;;;;;;;;;;;;;;;;;1897670;28;7305;-68
2022/09/23 01:55:22;;;;;;;;;;;;;;;;;;1897709;28;7013;-68
2022/09/23 01:56:23;;;;;;;;;;;;;;;;;;1897611;28;7013;-66
2022/09/23 01:57:27;;;;;;;;;;;;;;;;;;1897583;28;7053;-67
2022/09/23 01:58:40;;;;;;;;;;;;;;;;;;1897508;28;7112;-68
2022/09/23 01:59:49;;;;;;;;;;;;;;;;;;1897936;28;7112;-66
2022/09/23 02:00:52;;;;;;;;;;;;;;;;;;1897315;28;7124;-68
2022/09/23 02:01:59;;;;;;;;;;;;;;;;;;1897660;28;7017;-67
2022/09/23 02:03:03;;;;;;;;;;;;;;;;;;1897545;28;7045;-65
2022/09/23 02:04:21;;;;;;;;;;;;;;;;;;1897443;28;7124;-69
2022/09/23 02:05:27;;;;;;;;;;;;;;;;;;1897345;28;7013;-69
2022/09/23 02:06:30;;;;;;;;;;;;;;;;;;1896861;28;7092;-68
2022/09/23 02:07:34;;;;;;;;;;;;;;;;;;1896642;28;7172;-69
2022/09/23 02:08:43;;;;;;;;;;;;;;;;;;1897607;28;7014;-67
2022/09/23 02:09:44;;;;;;;;;;;;;;;;;;1897432;28;7286;-66
2022/09/23 02:10:56;;;;;;;;;;;;;;;;;;1897274;28;7009;-68
2022/09/23 02:11:59;;;;;;;;;;;;;;;;;;1897744;28;7100;-66
2022/09/23 02:13:04;;;;;;;;;;;;;;;;;;1897530;28;7074;-69
2022/09/23 02:14:01;;;;;;;;;;;;;;;;;;1896812;28;7005;-67
2022/09/23 02:15:04;;;;;;;;;;;;;;;;;;1897306;28;7005;-67
2022/09/23 02:16:07;;;;;;;;;;;;;;;;;;1897200;28;7005;-65
2022/09/23 02:17:09;;;;;;;;;;;;;;;;;;1897028;28;7010;-67
2022/09/23 02:18:12;;;;;;;;;;;;;;;;;;1894527;28;7027;-68
2022/09/23 02:19:18;;;;;;;;;;;;;;;;;;1895211;28;7088;-66
2022/09/23 02:20:19;;;;;;;;;;;;;;;;;;1897252;28;7005;-67
2022/09/23 02:21:19;;;;;;;;;;;;;;;;;;1897004;28;7014;-66
2022/09/23 02:22:29;;;;;;;;;;;;;;;;;;1897602;28;7324;-66
2022/09/23 02:23:41;;;;;;;;;;;;;;;;;;1888862;28;7033;-68
2022/09/23 02:24:39;;;;;;;;;;;;;;;;;;1881985;28;8563;-68
2022/09/23 02:25:51;;;;;;;;;;;;;;;;;;1882564;28;7019;-65
2022/09/23 02:26:51;;;;;;;;;;;;;;;;;;1891875;28;7042;-69
2022/09/23 02:27:55;;;;;;;;;;;;;;;;;;1889948;28;7009;-64
2022/09/23 02:28:53;;;;;;;;;;;;;;;;;;1890056;28;7002;-68
2022/09/23 02:29:53;;;;;;;;;;;;;;;;;;1889718;28;7106;-69
2022/09/23 02:30:59;;;;;;;;;;;;;;;;;;1892618;28;7100;-67
2022/09/23 02:31:57;;;;;;;;;;;;;;;;;;1889956;28;7120;-68
2022/09/23 02:32:54;;;;;;;;;;;;;;;;;;1889793;28;7006;-69
2022/09/23 02:33:57;;;;;;;;;;;;;;;;;;1889761;28;7042;-67
2022/09/23 02:34:54;;;;;;;;;;;;;;;;;;1889732;28;7005;-67
2022/09/23 02:36:05;;;;;;;;;;;;;;;;;;1889743;28;7026;-67
2022/09/23 02:37:15;;;;;;;;;;;;;;;;;;1895064;28;7029;-66
2022/09/23 02:38:21;;;;;;;;;;;;;;;;;;1895424;28;7046;-66
2022/09/23 02:39:22;;;;;;;;;;;;;;;;;;1889557;28;8044;-63
2022/09/23 02:40:27;;;;;;;;;;;;;;;;;;1889471;28;7117;-65
2022/09/23 02:41:25;;;;;;;;;;;;;;;;;;1889253;28;7034;-66
2022/09/23 02:42:29;;;;;;;;;;;;;;;;;;1889824;28;7013;-65
2022/09/23 02:43:35;;;;;;;;;;;;;;;;;;1892577;28;7105;-69
2022/09/23 02:44:32;;;;;;;;;;;;;;;;;;1897114;28;7340;-67
2022/09/23 02:45:30;;;;;;;;;;;;;;;;;;1895614;28;7100;-68
2022/09/23 02:46:31;;;;;;;;;;;;;;;;;;1889733;28;7018;-68
2022/09/23 02:47:33;;;;;;;;;;;;;;;;;;1893725;28;7013;-69
2022/09/23 02:48:40;;;;;;;;;;;;;;;;;;1896761;28;7018;-65
2022/09/23 02:49:37;;;;;;;;;;;;;;;;;;1895242;28;7117;-64
2022/09/23 02:50:36;;;;;;;;;;;;;;;;;;1889704;28;7433;-68
2022/09/23 02:51:37;;;;;;;;;;;;;;;;;;1893931;28;7009;-69
2022/09/23 02:52:36;;;;;;;;;;;;;;;;;;1889330;28;7022;-68
2022/09/23 02:53:34;;;;;;;;;;;;;;;;;;1890505;28;7013;-65
2022/09/23 02:54:32;;;;;;;;;;;;;;;;;;1889934;28;7009;-68
2022/09/23 02:55:31;;;;;;;;;;;;;;;;;;1888625;28;7010;-69
2022/09/23 02:56:28;;;;;;;;;;;;;;;;;;1889741;28;7014;-71
2022/09/23 02:57:26;;;;;;;;;;;;;;;;;;1889532;28;7324;-70
2022/09/23 02:58:23;;;;;;;;;;;;;;;;;;1889233;28;8127;-68
2022/09/23 02:59:22;;;;;;;;;;;;;;;;;;1888759;28;7046;-69
2022/09/23 03:00:19;;;;;;;;;;;;;;;;;;1895873;28;7006;-66
2022/09/23 03:01:36;;;;;;;;;;;;;;;;;;1879491;28;8911;-68
2022/09/23 03:02:33;;;;;;;;;;;;;;;;;;1876557;28;7010;-66
2022/09/23 03:03:33;;;;;;;;;;;;;;;;;;1889188;28;7034;-66
2022/09/23 03:04:55;;;;;;;;;;;;;;;;;;1889324;28;7022;-69
2022/09/23 03:05:56;;;;;;;;;;;;;;;;;;1891969;28;9403;-66
2022/09/23 03:07:06;;;;;;;;;;;;;;;;;;1888923;28;7109;-67
2022/09/23 03:08:13;;;;;;;;;;;;;;;;;;1888810;28;7010;-69
2022/09/23 03:09:18;;;;;;;;;;;;;;;;;;1894634;28;7082;-68
2022/09/23 03:10:16;;;;;;;;;;;;;;;;;;1888773;28;7010;-66
2022/09/23 03:11:16;;;;;;;;;;;;;;;;;;1889118;28;7076;-70
2022/09/23 03:12:20;;;;;;;;;;;;;;;;;;1892435;28;7010;-66
2022/09/23 03:13:33;;;;;;;;;;;;;;;;;;1889812;28;7096;-66
2022/09/23 03:14:48;;;;;;;;;;;;;;;;;;1889031;28;7025;-66
2022/09/23 03:16:01;;;;;;;;;;;;;;;;;;1889133;28;7380;-65
2022/09/23 03:17:05;;;;;;;;;;;;;;;;;;1889319;28;7018;-68
2022/09/23 03:18:24;;;;;;;;;;;;;;;;;;1888130;28;7034;-68
2022/09/23 03:19:32;;;;;;;;;;;;;;;;;;1888586;28;7006;-68
2022/09/23 03:20:33;;;;;;;;;;;;;;;;;;1889792;28;7132;-68
2022/09/23 03:21:35;;;;;;;;;;;;;;;;;;1890083;28;7096;-68
2022/09/23 03:22:39;;;;;;;;;;;;;;;;;;1890081;28;7443;-69
2022/09/23 03:23:39;;;;;;;;;;;;;;;;;;1889470;28;7093;-65
2022/09/23 03:24:39;;;;;;;;;;;;;;;;;;1889298;28;7009;-66
2022/09/23 03:25:39;;;;;;;;;;;;;;;;;;1889276;28;7108;-65
2022/09/23 03:26:39;;;;;;;;;;;;;;;;;;1889568;28;7083;-65
2022/09/23 03:27:41;;;;;;;;;;;;;;;;;;1889635;28;7025;-66
2022/09/23 03:28:42;;;;;;;;;;;;;;;;;;1889505;28;7005;-67
2022/09/23 03:29:46;;;;;;;;;;;;;;;;;;1888429;28;7361;-67
2022/09/23 03:30:43;;;;;;;;;;;;;;;;;;1888580;28;7137;-67
2022/09/23 03:31:42;;;;;;;;;;;;;;;;;;1888097;28;7002;-67
2022/09/23 03:32:45;;;;;;;;;;;;;;;;;;1888145;28;7096;-67
2022/09/23 03:33:47;;;;;;;;;;;;;;;;;;1889047;28;7312;-67
2022/09/23 03:34:47;;;;;;;;;;;;;;;;;;1889390;28;7006;-69
2022/09/23 03:37:14;;;;;;;;;;;;;;;;;;1889138;28;7010;-66
2022/09/23 03:38:15;;;;;;;;;;;;;;;;;;1889577;28;8119;-66
2022/09/23 03:39:20;;;;;;;;;;;;;;;;;;1889313;28;7415;-68
2022/09/23 03:40:25;;;;;;;;;;;;;;;;;;1889643;28;7038;-68
2022/09/23 03:41:29;;;;;;;;;;;;;;;;;;1889436;28;7013;-65
2022/09/23 03:42:29;;;;;;;;;;;;;;;;;;1888389;28;7101;-67
2022/09/23 03:43:27;;;;;;;;;;;;;;;;;;1889402;28;7124;-68
2022/09/23 03:44:28;;;;;;;;;;;;;;;;;;1887965;28;7018;-68
2022/09/23 03:45:29;;;;;;;;;;;;;;;;;;1889308;28;7101;-67
2022/09/23 03:46:28;;;;;;;;;;;;;;;;;;1888303;28;7050;-66
2022/09/23 03:47:27;;;;;;;;;;;;;;;;;;1889298;28;7010;-69
2022/09/23 03:48:25;;;;;;;;;;;;;;;;;;1889812;28;7009;-66
2022/09/23 03:49:26;;;;;;;;;;;;;;;;;;1881621;28;7134;-67
2022/09/23 03:50:24;;;;;;;;;;;;;;;;;;1881675;28;7006;-67
2022/09/23 03:51:22;;;;;;;;;;;;;;;;;;1888976;28;7229;-67
2022/09/23 03:52:21;;;;;;;;;;;;;;;;;;1888129;28;7018;-66
2022/09/23 03:53:19;;;;;;;;;;;;;;;;;;1889068;28;7117;-66
2022/09/23 03:54:18;;;;;;;;;;;;;;;;;;1889471;28;7006;-68
2022/09/23 03:55:18;;;;;;;;;;;;;;;;;;1889360;28;7230;-68
2022/09/23 03:56:15;;;;;;;;;;;;;;;;;;1890030;28;8106;-69
2022/09/23 03:57:13;;;;;;;;;;;;;;;;;;1889767;28;7057;-70
2022/09/23 03:58:10;;;;;;;;;;;;;;;;;;1889444;28;7026;-69
2022/09/23 03:59:07;;;;;;;;;;;;;;;;;;1889764;28;7006;-68
2022/09/23 04:00:06;;;;;;;;;;;;;;;;;;1889437;28;7002;-68
2022/09/23 04:01:04;;;;;;;;;;;;;;;;;;1889505;28;7092;-67
2022/09/23 04:02:03;;;;;;;;;;;;;;;;;;1887958;28;7137;-66
2022/09/23 04:03:00;;;;;;;;;;;;;;;;;;1888609;28;8051;-70
2022/09/23 04:03:58;;;;;;;;;;;;;;;;;;1889345;28;7006;-66
2022/09/23 04:04:56;;;;;;;;;;;;;;;;;;1889356;28;7120;-67
2022/09/23 04:05:53;;;;;;;;;;;;;;;;;;1889220;28;7117;-65
2022/09/23 04:06:51;;;;;;;;;;;;;;;;;;1889310;28;7030;-68
2022/09/23 04:07:49;;;;;;;;;;;;;;;;;;1889188;28;7038;-69
2022/09/23 04:08:47;;;;;;;;;;;;;;;;;;1889260;28;7005;-65
2022/09/23 04:09:44;;;;;;;;;;;;;;;;;;1889219;28;7042;-68
2022/09/23 04:10:42;;;;;;;;;;;;;;;;;;1890130;28;8040;-68
2022/09/23 04:11:39;;;;;;;;;;;;;;;;;;1889815;28;7017;-69
2022/09/23 04:12:37;;;;;;;;;;;;;;;;;;1888275;28;7026;-68
2022/09/23 04:13:34;;;;;;;;;;;;;;;;;;1889180;28;7006;-68
2022/09/23 04:14:31;;;;;;;;;;;;;;;;;;1897223;28;7009;-67
2022/09/23 04:15:29;;;;;;;;;;;;;;;;;;1898074;28;8217;-68
2022/09/23 04:16:26;;;;;;;;;;;;;;;;;;1897060;28;7282;-65
2022/09/23 04:17:24;;;;;;;;;;;;;;;;;;1897730;28;7005;-66
2022/09/23 04:18:21;;;;;;;;;;;;;;;;;;1897334;28;7077;-66
2022/09/23 04:19:18;;;;;;;;;;;;;;;;;;1897719;28;7442;-69
2022/09/23 04:20:17;;;;;;;;;;;;;;;;;;1896568;28;7096;-67
2022/09/23 04:21:15;;;;;;;;;;;;;;;;;;1895836;28;7014;-68
2022/09/23 04:22:12;;;;;;;;;;;;;;;;;;1896905;28;8482;-68
2022/09/23 04:23:09;;;;;;;;;;;;;;;;;;1896682;28;7014;-69
2022/09/23 04:24:07;;;;;;;;;;;;;;;;;;1896895;28;7290;-66
2022/09/23 04:25:05;;;;;;;;;;;;;;;;;;1896922;28;7081;-66
2022/09/23 04:26:03;;;;;;;;;;;;;;;;;;1896977;28;7005;-68
2022/09/23 04:27:01;;;;;;;;;;;;;;;;;;1897144;28;7013;-64
2022/09/23 04:27:58;;;;;;;;;;;;;;;;;;1896862;28;8027;-65
2022/09/23 04:28:55;;;;;;;;;;;;;;;;;;1895644;28;7049;-69
2022/09/23 04:29:53;;;;;;;;;;;;;;;;;;1897270;28;8423;-67
2022/09/23 04:30:50;;;;;;;;;;;;;;;;;;1895408;28;7034;-68
2022/09/23 04:31:48;;;;;;;;;;;;;;;;;;1897231;28;7002;-68
2022/09/23 04:32:45;;;;;;;;;;;;;;;;;;1896612;28;7120;-64
2022/09/23 04:33:43;;;;;;;;;;;;;;;;;;1896775;28;7005;-68
2022/09/23 04:34:40;;;;;;;;;;;;;;;;;;1896103;28;7009;-67
2022/09/23 04:35:38;;;;;;;;;;;;;;;;;;1896318;28;7005;-66
2022/09/23 04:36:36;;;;;;;;;;;;;;;;;;1896568;28;7006;-68
2022/09/23 04:37:34;;;;;;;;;;;;;;;;;;1896779;28;7013;-67
2022/09/23 04:38:32;;;;;;;;;;;;;;;;;;1897196;28;7005;-66
2022/09/23 04:39:29;;;;;;;;;;;;;;;;;;1897207;28;7002;-67
2022/09/23 04:40:27;;;;;;;;;;;;;;;;;;1897116;28;7062;-67
2022/09/23 04:41:24;;;;;;;;;;;;;;;;;;1896693;28;7033;-66
2022/09/23 04:42:22;;;;;;;;;;;;;;;;;;1896680;28;7133;-66
2022/09/23 04:43:21;;;;;;;;;;;;;;;;;;1896971;28;7002;-67
2022/09/23 04:44:20;;;;;;;;;;;;;;;;;;1897296;28;7908;-65
2022/09/23 04:45:17;;;;;;;;;;;;;;;;;;1896830;28;7006;-69
2022/09/23 04:46:14;;;;;;;;;;;;;;;;;;1896110;28;7133;-65
2022/09/23 04:47:12;;;;;;;;;;;;;;;;;;1895401;28;8035;-68
2022/09/23 04:48:12;;;;;;;;;;;;;;;;;;1896752;28;7256;-69
2022/09/23 04:49:11;;;;;;;;;;;;;;;;;;1896436;28;7439;-67
2022/09/23 04:50:08;;;;;;;;;;;;;;;;;;1896503;28;7006;-65
2022/09/23 04:51:08;;;;;;;;;;;;;;;;;;1897254;28;8098;-65
2022/09/23 04:52:06;;;;;;;;;;;;;;;;;;1896823;28;7013;-67
2022/09/23 04:53:04;;;;;;;;;;;;;;;;;;1897172;28;7153;-66
2022/09/23 04:54:01;;;;;;;;;;;;;;;;;;1896832;28;8042;-66
2022/09/23 04:54:58;;;;;;;;;;;;;;;;;;1896580;28;7014;-67
2022/09/23 04:56:02;;;;;;;;;;;;;;;;;;1896505;28;7124;-66
2022/09/23 04:56:59;;;;;;;;;;;;;;;;;;1896516;28;7009;-69
2022/09/23 04:57:56;;;;;;;;;;;;;;;;;;1896972;28;7097;-66
2022/09/23 04:59:00;;;;;;;;;;;;;;;;;;1897152;28;7152;-66
2022/09/23 04:59:58;;;;;;;;;;;;;;;;;;1896492;28;7037;-66
2022/09/23 05:00:58;;;;;;;;;;;;;;;;;;1896598;28;7312;-68
2022/09/23 05:02:01;;;;;;;;;;;;;;;;;;1895891;28;7001;-69
2022/09/23 05:02:58;;;;;;;;;;;;;;;;;;1896886;28;7100;-66
2022/09/23 05:04:01;;;;;;;;;;;;;;;;;;1896534;28;7052;-67
2022/09/23 05:04:58;;;;;;;;;;;;;;;;;;1896032;28;7278;-67
2022/09/23 05:05:58;;;;;;;;;;;;;;;;;;1895668;28;7254;-68
2022/09/23 05:06:56;;;;;;;;;;;;;;;;;;1895891;28;7143;-69
2022/09/23 05:07:59;;;;;;;;;;;;;;;;;;1896443;28;7009;-66
2022/09/23 05:08:57;;;;;;;;;;;;;;;;;;1896538;28;7577;-69
2022/09/23 05:09:55;;;;;;;;;;;;;;;;;;1895657;28;8479;-67
2022/09/23 05:10:56;;;;;;;;;;;;;;;;;;1896813;28;7006;-67
2022/09/23 05:11:54;;;;;;;;;;;;;;;;;;1895848;28;7176;-66
2022/09/23 05:12:51;;;;;;;;;;;;;;;;;;1896644;28;7309;-67
2022/09/23 05:13:53;;;;;;;;;;;;;;;;;;1894419;28;8680;-68
2022/09/23 05:14:51;;;;;;;;;;;;;;;;;;1895726;28;8063;-66
2022/09/23 05:15:48;;;;;;;;;;;;;;;;;;1896161;28;7010;-65
2022/09/23 05:16:46;;;;;;;;;;;;;;;;;;1896312;28;7169;-67
2022/09/23 05:17:43;;;;;;;;;;;;;;;;;;1896211;28;7096;-67
2022/09/23 05:18:42;;;;;;;;;;;;;;;;;;1896470;28;7025;-66
2022/09/23 05:19:39;;;;;;;;;;;;;;;;;;1895136;28;7120;-67
2022/09/23 05:20:37;;;;;;;;;;;;;;;;;;1896248;28;7092;-66
2022/09/23 05:21:35;;;;;;;;;;;;;;;;;;1897014;28;7088;-65
2022/09/23 05:22:33;;;;;;;;;;;;;;;;;;1897217;28;7092;-65
2022/09/23 05:23:31;;;;;;;;;;;;;;;;;;1897728;28;7200;-70
2022/09/23 05:24:29;;;;;;;;;;;;;;;;;;1897728;28;7038;-67
2022/09/23 05:25:26;;;;;;;;;;;;;;;;;;1892223;28;7006;-65
2022/09/23 05:26:25;;;;;;;;;;;;;;;;;;1894420;28;7436;-68
2022/09/23 05:27:22;;;;;;;;;;;;;;;;;;1894080;28;7017;-67
2022/09/23 05:28:20;;;;;;;;;;;;;;;;;;1894116;28;7749;-68
2022/09/23 05:29:17;;;;;;;;;;;;;;;;;;1892581;28;7006;-68
2022/09/23 05:30:15;;;;;;;;;;;;;;;;;;1891619;28;8049;-66
2022/09/23 05:31:17;;;;;;;;;;;;;;;;;;1893060;28;7009;-64
2022/09/23 05:32:17;;;;;;;;;;;;;;;;;;1896133;28;7005;-68
2022/09/23 05:33:14;;;;;;;;;;;;;;;;;;1897394;28;7050;-68
2022/09/23 05:34:12;;;;;;;;;;;;;;;;;;1896516;28;7107;-66
2022/09/23 05:35:09;;;;;;;;;;;;;;;;;;1896571;28;7005;-68
2022/09/23 05:36:06;;;;;;;;;;;;;;;;;;1896772;28;7018;-68
2022/09/23 05:37:04;;;;;;;;;;;;;;;;;;1895805;28;7001;-69
2022/09/23 05:38:01;;;;;;;;;;;;;;;;;;1897258;28;7005;-67
2022/09/23 05:38:59;;;;;;;;;;;;;;;;;;1894988;28;7096;-68
2022/09/23 05:39:56;;;;;;;;;;;;;;;;;;1894666;28;7009;-67
2022/09/23 05:41:04;;;;;;;;;;;;;;;;;;1893361;28;7066;-67
2022/09/23 05:42:01;;;;;;;;;;;;;;;;;;1892395;28;7029;-68
2022/09/23 05:42:59;;;;;;;;;;;;;;;;;;1892926;28;7013;-66
2022/09/23 05:43:56;;;;;;;;;;;;;;;;;;1896383;28;8092;-65
2022/09/23 05:44:55;;;;;;;;;;;;;;;;;;1896468;28;7013;-69
2022/09/23 05:46:00;;;;;;;;;;;;;;;;;;1896262;28;7009;-67
2022/09/23 05:47:04;;;;;;;;;;;;;;;;;;1896614;28;7010;-66
2022/09/23 05:48:01;;;;;;;;;;;;;;;;;;1894992;28;8155;-68
2022/09/23 05:48:59;;;;;;;;;;;;;;;;;;1895688;28;7225;-66
2022/09/23 05:50:07;;;;;;;;;;;;;;;;;;1896007;28;7025;-67
2022/09/23 05:51:09;;;;;;;;;;;;;;;;;;1896537;28;7096;-69
2022/09/23 05:52:06;;;;;;;;;;;;;;;;;;1895634;28;7005;-67
2022/09/23 05:53:03;;;;;;;;;;;;;;;;;;1895638;28;7001;-67
2022/09/23 05:54:04;;;;;;;;;;;;;;;;;;1895861;28;7026;-68
2022/09/23 05:55:02;;;;;;;;;;;;;;;;;;1895309;28;7376;-69
2022/09/23 05:55:59;;;;;;;;;;;;;;;;;;1894188;28;7783;-68
2022/09/23 05:56:57;;;;;;;;;;;;;;;;;;1894370;28;8010;-67
2022/09/23 05:57:58;;;;;;;;;;;;;;;;;;1894466;28;7303;-68
2022/09/23 05:58:57;;;;;;;;;;;;;;;;;;1895823;28;7006;-67
2022/09/23 05:59:55;;;;;;;;;;;;;;;;;;1897246;28;7395;-67
2022/09/23 06:00:54;;;;;;;;;;;;;;;;;;1895891;28;8071;-68
2022/09/23 06:01:52;;;;;;;;;;;;;;;;;;1896178;28;7128;-67
2022/09/23 06:02:52;;;;;;;;;;;;;;;;;;1897245;28;7002;-67
2022/09/23 06:03:54;;;;;;;;;;;;;;;;;;1897749;28;7096;-68
2022/09/23 06:04:51;;;;;;;;;;;;;;;;;;1897635;28;7331;-67
2022/09/23 06:05:52;;;;;;;;;;;;;;;;;;1895918;28;7009;-69
2022/09/23 06:06:50;;;;;;;;;;;;;;;;;;1896500;28;7356;-68
2022/09/23 06:07:47;;;;;;;;;;;;;;;;;;1897376;28;7010;-68
2022/09/23 06:08:45;;;;;;;;;;;;;;;;;;1897611;28;7005;-69
2022/09/23 06:09:43;;;;;;;;;;;;;;;;;;1897657;28;7659;-69
2022/09/23 06:10:44;;;;;;;;;;;;;;;;;;1896009;28;7001;-68
2022/09/23 06:11:45;;;;;;;;;;;;;;;;;;1896595;28;7526;-68
2022/09/23 06:12:43;;;;;;;;;;;;;;;;;;1896458;28;7096;-67
2022/09/23 06:13:41;;;;;;;;;;;;;;;;;;1897101;28;7005;-69
2022/09/23 06:14:38;;;;;;;;;;;;;;;;;;1900314;28;8006;-70
2022/09/23 06:15:36;;;;;;;;;;;;;;;;;;1892196;28;7192;-68
2022/09/23 06:16:34;;;;;;;;;;;;;;;;;;1896007;28;7022;-68
2022/09/23 06:17:31;;;;;;;;;;;;;;;;;;1897904;28;7134;-69
2022/09/23 06:18:29;;;;;;;;;;;;;;;;;;1895025;28;7077;-67
2022/09/23 06:19:26;;;;;;;;;;;;;;;;;;1897554;28;7031;-67
2022/09/23 06:20:24;;;;;;;;;;;;;;;;;;1897351;28;7270;-70
2022/09/23 06:21:21;;;;;;;;;;;;;;;;;;1896678;28;7045;-66
2022/09/23 06:22:19;;;;;;;;;;;;;;;;;;1897447;28;7005;-66
2022/09/23 06:23:16;;;;;;;;;;;;;;;;;;1897604;28;7010;-69
2022/09/23 06:24:14;;;;;;;;;;;;;;;;;;1896657;28;7034;-66
2022/09/23 06:25:17;;;;;;;;;;;;;;;;;;1894713;28;7046;-66
2022/09/23 06:26:16;;;;;;;;;;;;;;;;;;1896909;28;7093;-67
2022/09/23 06:27:13;;;;;;;;;;;;;;;;;;1895848;28;7013;-65
2022/09/23 06:28:11;;;;;;;;;;;;;;;;;;1895145;28;7021;-69
2022/09/23 06:29:13;;;;;;;;;;;;;;;;;;1896491;28;8077;-67
2022/09/23 06:30:11;;;;;;;;;;;;;;;;;;1897271;28;7096;-67
2022/09/23 06:31:15;;;;;;;;;;;;;;;;;;1897837;28;7038;-67
2022/09/23 06:32:12;;;;;;;;;;;;;;;;;;1896022;28;7013;-68
2022/09/23 06:33:10;;;;;;;;;;;;;;;;;;1897627;28;7009;-67
2022/09/23 06:34:11;;;;;;;;;;;;;;;;;;1897363;28;7017;-68
2022/09/23 06:35:10;;;;;;;;;;;;;;;;;;1897216;28;7046;-69
2022/09/23 06:36:22;;;;;;;;;;;;;;;;;;1897372;28;7113;-69
2022/09/23 06:37:37;;;;;;;;;;;;;;;;;;1897059;28;7013;-67
2022/09/23 06:38:37;;;;;;;;;;;;;;;;;;1897851;28;7096;-65
2022/09/23 06:39:35;;;;;;;;;;;;;;;;;;1897928;28;8061;-67
2022/09/23 06:40:32;;;;;;;;;;;;;;;;;;1898086;28;7009;-68
2022/09/23 06:41:30;;;;;;;;;;;;;;;;;;1897755;28;7022;-68
2022/09/23 06:42:27;;;;;;;;;;;;;;;;;;1896551;28;8034;-68
2022/09/23 06:43:25;;;;;;;;;;;;;;;;;;1898275;28;7041;-70
2022/09/23 06:44:22;;;;;;;;;;;;;;;;;;1897277;28;7010;-67
2022/09/23 06:45:20;;;;;;;;;;;;;;;;;;1897849;28;7078;-66
2022/09/23 06:46:18;;;;;;;;;;;;;;;;;;1897309;28;7092;-66
2022/09/23 06:47:15;;;;;;;;;;;;;;;;;;1897368;28;7025;-71
2022/09/23 06:48:13;;;;;;;;;;;;;;;;;;1897626;28;7367;-68
2022/09/23 06:49:11;;;;;;;;;;;;;;;;;;1897662;28;7013;-66
2022/09/23 06:50:08;;;;;;;;;;;;;;;;;;1897522;28;7037;-67
2022/09/23 06:51:06;;;;;;;;;;;;;;;;;;1897862;28;7045;-68
2022/09/23 06:52:04;;;;;;;;;;;;;;;;;;1895528;28;7100;-65
2022/09/23 06:53:02;;;;;;;;;;;;;;;;;;1896384;28;7324;-69
2022/09/23 06:53:59;;;;;;;;;;;;;;;;;;1895712;28;8535;-67
2022/09/23 06:54:57;;;;;;;;;;;;;;;;;;1895011;28;7021;-67
2022/09/23 06:56:02;;;;;;;;;;;;;;;;;;1896854;28;7092;-69
2022/09/23 06:57:00;;;;;;;;;;;;;;;;;;1896269;28;7006;-67
2022/09/23 06:57:57;;;;;;;;;;;;;;;;;;1897809;28;7009;-68
2022/09/23 06:58:55;;;;;;;;;;;;;;;;;;1896208;28;8306;-67
2022/09/23 06:59:52;;;;;;;;;;;;;;;;;;1897462;28;7005;-69
2022/09/23 07:00:49;;;;;;;;;;;;;;;;;;1897353;28;7006;-67
2022/09/23 07:01:47;;;;;;;;;;;;;;;;;;1897675;28;7321;-67
2022/09/23 07:02:44;;;;;;;;;;;;;;;;;;1897601;28;7006;-66